createdAt,value
2022-10-05T00:00:54.870Z,16.60
2022-10-05T00:03:24.395Z,16.60
2022-10-05T00:05:51.944Z,16.70
2022-10-05T00:08:22.777Z,16.70
2022-10-05T00:10:51.229Z,16.70
2022-10-05T00:13:25.030Z,16.80
2022-10-05T00:16:36.248Z,16.70
2022-10-05T00:19:10.416Z,16.70
2022-10-05T00:21:38.092Z,16.80
2022-10-05T00:24:10.440Z,16.80
2022-10-05T00:26:37.811Z,16.80
2022-10-05T00:29:18.730Z,16.80
2022-10-05T00:31:46.159Z,16.80
2022-10-05T00:34:13.854Z,16.80
2022-10-05T00:36:41.283Z,16.80
2022-10-05T00:39:08.738Z,16.80
2022-10-05T00:41:46.957Z,16.80
2022-10-05T00:44:35.158Z,16.80
2022-10-05T00:47:30.504Z,16.80
2022-10-05T00:50:20.050Z,16.80
2022-10-05T00:53:08.218Z,16.80
2022-10-05T00:55:55.329Z,16.80
2022-10-05T00:58:45.808Z,16.80
2022-10-05T01:01:17.218Z,16.80
2022-10-05T01:04:13.967Z,16.80
2022-10-05T01:07:14.196Z,16.90
2022-10-05T01:09:53.741Z,16.90
2022-10-05T01:12:33.404Z,16.90
2022-10-05T01:15:11.006Z,16.90
2022-10-05T01:18:12.746Z,16.90
2022-10-05T01:21:01.173Z,16.90
2022-10-05T01:23:37.131Z,16.90
2022-10-05T01:26:16.338Z,16.90
2022-10-05T01:29:07.025Z,17.00
2022-10-05T01:31:43.544Z,16.90
2022-10-05T01:34:31.213Z,16.80
2022-10-05T01:37:07.659Z,16.90
2022-10-05T01:39:35.108Z,16.80
2022-10-05T01:42:18.147Z,16.80
2022-10-05T01:45:00.993Z,16.90
2022-10-05T01:47:47.195Z,16.90
2022-10-05T01:50:36.264Z,16.90
2022-10-05T01:53:49.488Z,16.80
2022-10-05T01:56:29.096Z,16.90
2022-10-05T01:59:24.961Z,16.90
2022-10-05T02:01:52.391Z,16.80
2022-10-05T02:05:03.086Z,16.80
2022-10-05T02:07:49.315Z,16.90
2022-10-05T02:10:35.151Z,16.80
2022-10-05T02:13:15.910Z,16.80
2022-10-05T02:15:54.568Z,16.80
2022-10-05T02:18:27.726Z,16.90
2022-10-05T02:20:58.387Z,16.90
2022-10-05T02:23:31.132Z,16.90
2022-10-05T02:25:58.816Z,16.90
2022-10-05T02:28:38.375Z,16.80
2022-10-05T02:31:15.836Z,16.80
2022-10-05T02:33:43.496Z,16.80
2022-10-05T02:36:15.972Z,16.80
2022-10-05T02:39:02.209Z,16.80
2022-10-05T02:42:05.560Z,16.80
2022-10-05T02:45:18.691Z,16.80
2022-10-05T02:47:59.554Z,16.80
2022-10-05T02:50:32.383Z,16.80
2022-10-05T02:53:11.683Z,16.80
2022-10-05T02:55:52.042Z,16.90
2022-10-05T02:58:30.716Z,16.90
2022-10-05T03:01:01.823Z,16.90
2022-10-05T03:03:41.765Z,16.90
2022-10-05T03:06:21.803Z,16.90
2022-10-05T03:08:57.936Z,16.80
2022-10-05T03:11:43.399Z,16.90
2022-10-05T03:14:21.521Z,16.90
2022-10-05T03:17:27.022Z,16.90
2022-10-05T03:20:24.103Z,16.90
2022-10-05T03:22:58.441Z,16.90
2022-10-05T03:25:47.515Z,16.90
2022-10-05T03:28:26.845Z,16.90
2022-10-05T03:31:03.661Z,16.80
2022-10-05T03:33:40.714Z,16.90
2022-10-05T03:37:03.399Z,16.90
2022-10-05T03:39:44.809Z,16.90
2022-10-05T03:42:14.914Z,16.80
2022-10-05T03:45:21.761Z,16.80
2022-10-05T03:47:58.997Z,16.80
2022-10-05T03:50:40.634Z,16.80
2022-10-05T03:53:48.130Z,16.80
2022-10-05T03:56:37.359Z,16.80
2022-10-05T03:59:14.726Z,16.80
2022-10-05T04:01:51.164Z,16.80
2022-10-05T04:04:26.436Z,16.80
2022-10-05T04:06:55.583Z,16.80
2022-10-05T04:09:39.862Z,16.80
2022-10-05T04:12:26.724Z,16.80
2022-10-05T04:15:07.176Z,16.80
2022-10-05T04:17:48.959Z,16.80
2022-10-05T04:20:44.425Z,16.90
2022-10-05T04:23:34.794Z,16.90
2022-10-05T04:26:17.743Z,16.90
2022-10-05T04:29:07.421Z,16.90
2022-10-05T04:32:03.568Z,16.90
2022-10-05T04:34:55.649Z,16.90
2022-10-05T04:37:28.560Z,16.90
2022-10-05T04:39:55.957Z,16.90
2022-10-05T04:42:36.356Z,16.90
2022-10-05T04:45:41.780Z,16.80
2022-10-05T04:48:20.867Z,16.90
2022-10-05T04:51:21.005Z,16.80
2022-10-05T04:53:56.932Z,16.80
2022-10-05T04:56:39.824Z,16.90
2022-10-05T04:59:28.960Z,16.80
2022-10-05T05:02:15.079Z,16.80
2022-10-05T05:04:52.292Z,16.80
2022-10-05T05:07:50.012Z,16.80
2022-10-05T05:10:40.960Z,16.80
2022-10-05T05:13:23.287Z,16.80
2022-10-05T05:16:09.889Z,16.70
2022-10-05T05:19:03.052Z,16.70
2022-10-05T05:21:42.497Z,16.70
2022-10-05T05:24:28.448Z,16.70
2022-10-05T05:27:01.395Z,16.70
2022-10-05T05:29:44.877Z,16.70
2022-10-05T05:32:29.598Z,16.60
2022-10-05T05:35:14.925Z,16.60
2022-10-05T05:38:00.701Z,16.60
2022-10-05T05:40:36.179Z,16.60
2022-10-05T05:43:15.469Z,16.60
2022-10-05T05:45:51.967Z,16.60
2022-10-05T05:48:38.763Z,16.60
2022-10-05T05:51:24.190Z,16.60
2022-10-05T05:54:07.041Z,16.60
2022-10-05T05:56:45.078Z,16.60
2022-10-05T05:59:37.924Z,16.60
2022-10-05T06:02:13.935Z,16.60
2022-10-05T06:04:52.923Z,16.60
2022-10-05T06:07:30.596Z,16.60
2022-10-05T06:10:24.829Z,16.60
2022-10-05T06:12:59.647Z,16.60
2022-10-05T06:15:35.078Z,16.60
2022-10-05T06:18:10.497Z,16.60
2022-10-05T06:20:46.332Z,16.60
2022-10-05T06:23:20.706Z,16.60
2022-10-05T06:25:57.233Z,16.60
2022-10-05T06:28:27.361Z,16.60
2022-10-05T06:31:18.773Z,16.60
2022-10-05T06:33:48.205Z,16.60
2022-10-05T06:36:23.788Z,16.60
2022-10-05T06:39:02.381Z,16.70
2022-10-05T06:41:50.262Z,16.70
2022-10-05T06:44:23.369Z,16.70
2022-10-05T06:46:56.926Z,16.80
2022-10-05T06:49:30.512Z,16.70
2022-10-05T06:52:03.888Z,16.70
2022-10-05T06:54:53.300Z,16.70
2022-10-05T06:57:45.491Z,16.70
2022-10-05T07:00:25.430Z,16.70
2022-10-05T07:03:05.781Z,16.70
2022-10-05T07:05:59.253Z,16.70
2022-10-05T07:08:29.716Z,16.70
2022-10-05T07:11:18.598Z,16.70
2022-10-05T07:13:54.873Z,16.80
2022-10-05T07:16:32.817Z,16.80
2022-10-05T07:19:35.240Z,16.80
2022-10-05T07:22:21.550Z,16.80
2022-10-05T07:25:08.509Z,16.90
2022-10-05T07:27:46.211Z,16.90
2022-10-05T07:30:17.743Z,16.90
2022-10-05T07:33:09.419Z,17.00
2022-10-05T07:36:17.234Z,16.90
2022-10-05T07:39:05.189Z,17.00
2022-10-05T07:41:37.580Z,17.00
2022-10-05T07:44:17.033Z,17.00
2022-10-05T07:46:52.037Z,17.00
2022-10-05T07:49:40.998Z,17.10
2022-10-05T07:52:17.123Z,17.10
2022-10-05T07:55:01.138Z,17.10
2022-10-05T07:57:45.084Z,17.10
2022-10-05T08:00:21.503Z,17.10
2022-10-05T08:03:20.971Z,17.10
2022-10-05T08:05:48.605Z,17.20
2022-10-05T08:08:23.674Z,17.20
2022-10-05T08:10:55.331Z,17.20
2022-10-05T08:13:39.278Z,17.20
2022-10-05T08:16:14.731Z,17.20
2022-10-05T08:18:48.791Z,17.30
2022-10-05T08:21:20.913Z,17.30
2022-10-05T08:23:58.148Z,17.40
2022-10-05T08:26:34.493Z,17.30
2022-10-05T08:29:34.435Z,17.30
2022-10-05T08:32:05.754Z,17.30
2022-10-05T08:34:57.696Z,17.30
2022-10-05T08:37:33.580Z,17.40
2022-10-05T08:40:21.440Z,17.40
2022-10-05T08:42:57.982Z,17.40
2022-10-05T08:45:44.039Z,17.40
2022-10-05T08:48:56.529Z,17.50
2022-10-05T08:51:51.130Z,17.50
2022-10-05T08:54:49.447Z,17.60
2022-10-05T08:57:38.704Z,17.60
2022-10-05T09:00:13.478Z,17.60
2022-10-05T09:03:02.935Z,17.60
2022-10-05T09:05:45.210Z,17.60
2022-10-05T09:08:24.157Z,17.70
2022-10-05T09:11:06.997Z,17.70
2022-10-05T09:13:52.212Z,17.70
2022-10-05T09:16:39.795Z,17.70
2022-10-05T09:20:07.484Z,17.70
2022-10-05T09:22:59.654Z,17.70
2022-10-05T09:25:59.528Z,17.70
2022-10-05T09:28:40.320Z,17.70
2022-10-05T09:31:17.199Z,17.80
2022-10-05T09:33:56.259Z,17.80
2022-10-05T09:36:38.795Z,17.80
2022-10-05T09:39:37.746Z,17.80
2022-10-05T09:42:24.296Z,17.90
2022-10-05T09:45:07.498Z,17.90
2022-10-05T09:48:07.964Z,17.90
2022-10-05T09:50:38.498Z,18.00
2022-10-05T09:53:17.705Z,18.00
2022-10-05T09:56:11.854Z,18.00
2022-10-05T09:59:07.535Z,18.00
2022-10-05T10:02:09.962Z,18.10
2022-10-05T10:05:17.055Z,18.10
2022-10-05T10:08:10.947Z,18.20
2022-10-05T10:11:04.638Z,18.20
2022-10-05T10:14:05.526Z,18.20
2022-10-05T10:16:46.226Z,18.30
2022-10-05T10:19:24.969Z,18.40
2022-10-05T10:21:55.223Z,18.40
2022-10-05T10:24:49.629Z,18.40
2022-10-05T10:27:49.080Z,18.40
2022-10-05T10:30:39.943Z,18.40
2022-10-05T10:33:31.225Z,18.30
2022-10-05T10:36:21.637Z,18.40
2022-10-05T10:39:11.999Z,18.40
2022-10-05T10:42:16.441Z,18.30
2022-10-05T10:45:08.720Z,18.30
2022-10-05T10:47:55.935Z,18.30
2022-10-05T10:50:41.293Z,18.30
2022-10-05T10:53:11.942Z,18.40
2022-10-05T10:56:00.920Z,18.40
2022-10-05T10:58:59.121Z,18.40
2022-10-05T11:01:36.077Z,18.40
2022-10-05T11:04:21.394Z,18.40
2022-10-05T11:07:13.478Z,18.40
2022-10-05T11:10:01.796Z,18.40
2022-10-05T11:13:06.608Z,18.50
2022-10-05T11:16:19.571Z,18.50
2022-10-05T11:19:12.213Z,18.50
2022-10-05T11:22:22.873Z,18.50
2022-10-05T11:25:09.879Z,18.50
2022-10-05T11:28:13.946Z,18.40
2022-10-05T11:30:47.464Z,18.40
2022-10-05T11:33:17.837Z,18.40
2022-10-05T11:36:20.617Z,18.30
2022-10-05T11:39:06.490Z,18.30
2022-10-05T11:41:52.101Z,18.30
2022-10-05T11:44:38.799Z,18.20
2022-10-05T11:47:24.361Z,18.20
2022-10-05T11:50:21.043Z,18.10
2022-10-05T11:52:50.953Z,18.10
2022-10-05T11:55:24.655Z,18.00
2022-10-05T11:57:57.101Z,17.90
2022-10-05T12:00:54.638Z,17.80
2022-10-05T12:03:37.414Z,17.70
2022-10-05T12:06:31.839Z,17.60
2022-10-05T12:09:25.748Z,17.40
2022-10-05T12:12:27.200Z,17.30
2022-10-05T12:15:14.140Z,17.20
2022-10-05T12:17:55.735Z,17.00
2022-10-05T12:20:46.249Z,16.90
2022-10-05T12:23:33.676Z,16.80
2022-10-05T12:26:39.739Z,16.70
2022-10-05T12:29:25.822Z,16.60
2022-10-05T12:32:02.995Z,16.60
2022-10-05T12:35:01.637Z,16.50
2022-10-05T12:37:46.528Z,16.50
2022-10-05T12:40:47.155Z,16.40
2022-10-05T12:43:51.475Z,16.40
2022-10-05T12:46:34.873Z,16.40
2022-10-05T12:49:10.932Z,16.40
2022-10-05T12:51:49.425Z,16.40
2022-10-05T12:54:28.524Z,16.40
2022-10-05T12:57:20.219Z,16.40
2022-10-05T13:00:13.279Z,16.40
2022-10-05T13:02:51.365Z,16.40
2022-10-05T13:05:34.430Z,16.40
2022-10-05T13:08:20.302Z,16.50
2022-10-05T13:10:54.339Z,16.60
2022-10-05T13:13:27.759Z,16.60
2022-10-05T13:16:07.044Z,16.60
2022-10-05T13:19:06.858Z,16.70
2022-10-05T13:21:45.844Z,16.70
2022-10-05T13:24:18.904Z,16.70
2022-10-05T13:27:13.996Z,16.80
2022-10-05T13:30:11.592Z,16.80
2022-10-05T13:32:45.411Z,16.80
2022-10-05T13:35:18.661Z,16.80
2022-10-05T13:38:00.284Z,16.90
2022-10-05T13:40:45.980Z,16.70
2022-10-05T13:43:20.166Z,16.50
2022-10-05T13:46:01.121Z,16.30
2022-10-05T13:48:55.612Z,16.20
2022-10-05T13:51:39.926Z,16.20
2022-10-05T13:54:19.216Z,16.10
2022-10-05T13:56:54.809Z,16.20
2022-10-05T13:59:40.653Z,16.20
2022-10-05T14:02:12.297Z,16.10
2022-10-05T14:04:44.401Z,16.10
2022-10-05T14:07:36.807Z,16.10
2022-10-05T14:10:13.200Z,16.10
2022-10-05T14:12:43.411Z,16.00
2022-10-05T14:15:30.062Z,16.00
2022-10-05T14:17:57.780Z,15.90
2022-10-05T14:20:34.284Z,15.90
2022-10-05T14:23:11.124Z,15.90
2022-10-05T14:25:53.868Z,15.90
2022-10-05T14:28:33.448Z,15.90
2022-10-05T14:31:11.254Z,15.90
2022-10-05T14:33:38.925Z,15.90
2022-10-05T14:36:36.161Z,15.90
2022-10-05T14:39:05.201Z,15.90
2022-10-05T14:41:37.560Z,15.90
2022-10-05T14:44:13.958Z,15.90
2022-10-05T14:47:30.551Z,16.00
2022-10-05T14:50:17.925Z,16.00
2022-10-05T14:53:11.452Z,16.10
2022-10-05T14:55:49.091Z,16.10
2022-10-05T14:58:55.642Z,16.10
2022-10-05T15:01:35.921Z,16.20
2022-10-05T15:04:26.351Z,16.20
2022-10-05T15:07:20.642Z,16.20
2022-10-05T15:09:51.681Z,16.20
2022-10-05T15:12:29.160Z,16.20
2022-10-05T15:15:25.461Z,16.20
2022-10-05T15:18:31.804Z,16.20
2022-10-05T15:21:27.644Z,16.20
2022-10-05T15:24:01.079Z,16.20
2022-10-05T15:26:36.304Z,16.20
2022-10-05T15:29:29.613Z,16.10
2022-10-05T15:32:18.432Z,16.00
2022-10-05T15:35:24.589Z,16.00
2022-10-05T15:38:21.239Z,16.00
2022-10-05T15:41:08.795Z,15.90
2022-10-05T15:43:53.334Z,15.90
2022-10-05T15:46:35.534Z,15.90
2022-10-05T15:49:12.341Z,15.80
2022-10-05T15:51:47.776Z,15.80
2022-10-05T15:54:56.550Z,15.70
2022-10-05T15:57:42.812Z,15.70
2022-10-05T16:00:14.257Z,15.60
2022-10-05T16:03:00.969Z,15.60
2022-10-05T16:05:53.489Z,15.50
2022-10-05T16:08:56.301Z,15.50
2022-10-05T16:11:32.297Z,15.50
2022-10-05T16:14:28.173Z,15.50
2022-10-05T16:17:24.199Z,15.40
2022-10-05T16:19:54.363Z,15.40
2022-10-05T16:22:59.660Z,15.40
2022-10-05T16:26:01.039Z,15.40
2022-10-05T16:28:34.523Z,15.40
2022-10-05T16:31:19.042Z,15.40
2022-10-05T16:33:54.331Z,15.40
2022-10-05T16:36:55.621Z,15.40
2022-10-05T16:39:25.615Z,15.40
2022-10-05T16:42:01.553Z,15.40
2022-10-05T16:45:07.924Z,15.40
2022-10-05T16:47:38.157Z,15.30
2022-10-05T16:50:11.941Z,15.30
2022-10-05T16:52:44.413Z,15.20
2022-10-05T16:55:20.009Z,15.20
2022-10-05T16:57:55.726Z,15.20
2022-10-05T17:00:51.679Z,15.20
2022-10-05T17:03:39.017Z,15.20
2022-10-05T17:06:12.351Z,15.20
2022-10-05T17:09:10.684Z,15.20
2022-10-05T17:11:44.938Z,15.10
2022-10-05T17:14:18.214Z,15.10
2022-10-05T17:17:00.234Z,15.10
2022-10-05T17:19:53.220Z,15.10
2022-10-05T17:22:46.499Z,15.10
2022-10-05T17:25:36.241Z,15.10
2022-10-05T17:28:18.906Z,15.00
2022-10-05T17:30:55.689Z,15.00
2022-10-05T17:33:26.265Z,15.00
2022-10-05T17:36:12.317Z,15.00
2022-10-05T17:39:15.769Z,15.00
2022-10-05T17:41:43.769Z,14.90
2022-10-05T17:44:16.194Z,14.90
2022-10-05T17:47:00.721Z,14.90
2022-10-05T17:50:17.069Z,14.90
2022-10-05T17:53:03.571Z,14.90
2022-10-05T17:55:32.264Z,14.80
2022-10-05T17:58:43.831Z,14.80
2022-10-05T18:01:26.691Z,14.70
2022-10-05T18:03:54.232Z,14.70
2022-10-05T18:06:34.191Z,14.70
2022-10-05T18:09:20.756Z,14.70
2022-10-05T18:12:11.530Z,14.70
2022-10-05T18:15:02.249Z,14.60
2022-10-05T18:17:47.538Z,14.60
2022-10-05T18:20:31.977Z,14.50
2022-10-05T18:23:09.669Z,14.50
2022-10-05T18:25:51.690Z,14.60
2022-10-05T18:28:53.288Z,14.60
2022-10-05T18:31:41.895Z,14.60
2022-10-05T18:34:31.236Z,14.50
2022-10-05T18:37:16.866Z,14.50
2022-10-05T18:40:22.786Z,14.50
2022-10-05T18:43:05.215Z,14.50
2022-10-05T18:45:59.334Z,14.40
2022-10-05T18:48:44.716Z,14.40
2022-10-05T18:51:28.395Z,14.40
2022-10-05T18:54:17.588Z,14.40
2022-10-05T18:56:50.166Z,14.30
2022-10-05T19:00:03.094Z,14.30
2022-10-05T19:02:38.424Z,14.30
2022-10-05T19:05:47.046Z,14.20
2022-10-05T19:08:55.571Z,14.20
2022-10-05T19:11:34.599Z,14.10
2022-10-05T19:14:22.914Z,14.00
2022-10-05T19:16:55.892Z,14.00
2022-10-05T19:19:44.982Z,13.90
2022-10-05T19:22:34.618Z,13.80
2022-10-05T19:25:21.163Z,13.80
2022-10-05T19:28:01.173Z,13.70
2022-10-05T19:31:13.100Z,13.70
2022-10-05T19:34:16.526Z,13.70
2022-10-05T19:37:18.168Z,13.60
2022-10-05T19:39:56.193Z,13.60
2022-10-05T19:43:04.422Z,13.50
2022-10-05T19:45:43.495Z,13.60
2022-10-05T19:48:40.775Z,13.50
2022-10-05T19:51:18.201Z,13.40
2022-10-05T19:53:49.943Z,13.40
2022-10-05T19:56:22.794Z,13.40
2022-10-05T19:58:53.181Z,13.40
2022-10-05T20:01:35.432Z,13.40
2022-10-05T20:04:03.193Z,13.40
2022-10-05T20:06:31.087Z,13.30
2022-10-05T20:09:00.314Z,13.40
2022-10-05T20:11:29.270Z,13.30
2022-10-05T20:14:02.502Z,13.30
2022-10-05T20:16:53.235Z,13.30
2022-10-05T20:19:50.606Z,13.30
2022-10-05T20:22:34.726Z,13.30
2022-10-05T20:25:21.999Z,13.20
2022-10-05T20:27:58.040Z,13.20
2022-10-05T20:30:28.294Z,13.20
2022-10-05T20:32:58.236Z,13.20
2022-10-05T20:35:30.779Z,13.10
2022-10-05T20:38:00.208Z,13.10
2022-10-05T20:40:29.468Z,13.10
2022-10-05T20:42:58.860Z,13.00
2022-10-05T20:45:26.421Z,13.00
2022-10-05T20:47:53.904Z,13.00
2022-10-05T20:50:22.252Z,13.00
2022-10-05T20:52:49.860Z,13.00
2022-10-05T20:55:17.391Z,13.00
2022-10-05T20:57:46.164Z,13.00
2022-10-05T21:00:14.182Z,12.90
2022-10-05T21:02:41.592Z,12.90
2022-10-05T21:05:09.598Z,12.90
2022-10-05T21:07:37.218Z,12.90
2022-10-05T21:10:05.408Z,12.80
2022-10-05T21:12:34.027Z,12.80
2022-10-05T21:15:04.708Z,12.80
2022-10-05T21:17:32.907Z,12.80
2022-10-05T21:20:00.413Z,12.80
2022-10-05T21:22:27.743Z,12.70
2022-10-05T21:24:55.242Z,12.70
2022-10-05T21:27:22.589Z,12.70
2022-10-05T21:29:50.055Z,12.70
2022-10-05T21:32:17.486Z,12.70
2022-10-05T21:34:44.874Z,12.60
2022-10-05T21:37:12.300Z,12.60
2022-10-05T21:39:39.694Z,12.60
2022-10-05T21:42:07.092Z,12.60
2022-10-05T21:44:34.510Z,12.60
2022-10-05T21:47:01.997Z,12.60
2022-10-05T21:49:29.667Z,12.60
2022-10-05T21:51:58.621Z,12.60
2022-10-05T21:54:26.524Z,12.50
2022-10-05T21:56:56.319Z,12.50
2022-10-05T21:59:29.263Z,12.50
2022-10-05T22:01:56.760Z,12.50
2022-10-05T22:04:24.630Z,12.50
2022-10-05T22:06:52.081Z,12.50
2022-10-05T22:09:19.435Z,12.50
2022-10-05T22:11:48.124Z,12.50
2022-10-05T22:14:16.034Z,12.50
2022-10-05T22:16:44.922Z,12.40
2022-10-05T22:19:18.041Z,12.40
2022-10-05T22:21:45.488Z,12.40
2022-10-05T22:24:12.948Z,12.40
2022-10-05T22:26:43.662Z,12.40
2022-10-05T22:29:12.477Z,12.30
2022-10-05T22:31:40.424Z,12.30
2022-10-05T22:34:08.002Z,12.30
2022-10-05T22:36:36.521Z,12.30
2022-10-05T22:39:04.255Z,12.30
2022-10-05T22:41:31.789Z,12.30
2022-10-05T22:43:59.964Z,12.30
2022-10-05T22:46:27.567Z,12.30
2022-10-05T22:48:55.029Z,12.20
2022-10-05T22:51:22.500Z,12.20
2022-10-05T22:53:50.229Z,12.20
2022-10-05T22:56:18.059Z,12.20
2022-10-05T22:58:45.830Z,12.20
2022-10-05T23:01:15.770Z,12.20
2022-10-05T23:03:43.594Z,12.20
2022-10-05T23:06:20.757Z,12.10
2022-10-05T23:08:48.255Z,12.10
2022-10-05T23:11:23.661Z,12.10
2022-10-05T23:13:52.376Z,12.10
2022-10-05T23:16:23.411Z,12.00
2022-10-05T23:18:51.895Z,12.00
2022-10-05T23:21:21.333Z,12.00
2022-10-05T23:23:51.134Z,12.00
2022-10-05T23:26:22.192Z,11.90
2022-10-05T23:28:50.331Z,11.90
2022-10-05T23:31:23.221Z,11.90
2022-10-05T23:33:52.045Z,11.90
2022-10-05T23:36:32.848Z,11.90
2022-10-05T23:39:00.623Z,11.80
2022-10-05T23:41:28.197Z,11.80
2022-10-05T23:43:55.674Z,11.80
2022-10-05T23:46:23.364Z,11.70
2022-10-05T23:48:50.903Z,11.70
2022-10-05T23:51:18.669Z,11.70
2022-10-05T23:53:46.126Z,11.70
2022-10-05T23:56:13.568Z,11.70
2022-10-05T23:58:41.124Z,11.70
